sensor_id;sensor_type;location;lat;lon;timestamp;temperature;humidity
19930;DHT22;10127;47.780;9.606;2023-05-10T00:00:25;14.70;99.90
19930;DHT22;10127;47.780;9.606;2023-05-10T00:02:50;14.60;99.90
19930;DHT22;10127;47.780;9.606;2023-05-10T00:05:16;14.60;99.90
19930;DHT22;10127;47.780;9.606;2023-05-10T00:07:41;14.60;99.90
19930;DHT22;10127;47.780;9.606;2023-05-10T00:10:10;14.50;99.90
19930;DHT22;10127;47.780;9.606;2023-05-10T00:12:35;14.50;99.90
19930;DHT22;10127;47.780;9.606;2023-05-10T00:15:01;14.50;99.90
19930;DHT22;10127;47.780;9.606;2023-05-10T00:17:28;14.60;99.90
19930;DHT22;10127;47.780;9.606;2023-05-10T00:19:53;14.60;99.90
19930;DHT22;10127;47.780;9.606;2023-05-10T00:22:19;14.60;99.90
19930;DHT22;10127;47.780;9.606;2023-05-10T00:24:45;14.50;99.90
19930;DHT22;10127;47.780;9.606;2023-05-10T00:27:11;14.60;99.90
19930;DHT22;10127;47.780;9.606;2023-05-10T00:29:36;14.60;99.90
19930;DHT22;10127;47.780;9.606;2023-05-10T00:32:02;14.50;99.90
19930;DHT22;10127;47.780;9.606;2023-05-10T00:34:27;14.50;99.90
19930;DHT22;10127;47.780;9.606;2023-05-10T00:36:53;14.50;99.90
19930;DHT22;10127;47.780;9.606;2023-05-10T00:39:19;14.50;99.90
19930;DHT22;10127;47.780;9.606;2023-05-10T00:41:44;14.40;99.90
19930;DHT22;10127;47.780;9.606;2023-05-10T00:44:10;14.40;99.90
19930;DHT22;10127;47.780;9.606;2023-05-10T00:46:36;14.30;99.90
19930;DHT22;10127;47.780;9.606;2023-05-10T00:49:08;14.30;99.90
19930;DHT22;10127;47.780;9.606;2023-05-10T00:51:34;14.30;99.90
19930;DHT22;10127;47.780;9.606;2023-05-10T00:53:59;14.30;99.90
19930;DHT22;10127;47.780;9.606;2023-05-10T00:56:25;14.20;99.90
19930;DHT22;10127;47.780;9.606;2023-05-10T00:58:51;14.30;99.90
19930;DHT22;10127;47.780;9.606;2023-05-10T01:01:17;14.30;99.90
19930;DHT22;10127;47.780;9.606;2023-05-10T01:03:43;14.30;99.90
19930;DHT22;10127;47.780;9.606;2023-05-10T01:06:09;14.30;99.90
19930;DHT22;10127;47.780;9.606;2023-05-10T01:08:35;14.30;99.90
19930;DHT22;10127;47.780;9.606;2023-05-10T01:11:01;14.30;99.90
19930;DHT22;10127;47.780;9.606;2023-05-10T01:13:35;14.30;99.90
19930;DHT22;10127;47.780;9.606;2023-05-10T01:16:01;14.30;99.90
19930;DHT22;10127;47.780;9.606;2023-05-10T01:18:29;14.20;99.90
19930;DHT22;10127;47.780;9.606;2023-05-10T01:21:33;14.20;99.90
19930;DHT22;10127;47.780;9.606;2023-05-10T01:29:45;14.20;99.90
19930;DHT22;10127;47.780;9.606;2023-05-10T01:34:52;14.10;99.90
19930;DHT22;10127;47.780;9.606;2023-05-10T01:37:25;14.20;99.90
19930;DHT22;10127;47.780;9.606;2023-05-10T01:40:13;14.20;99.90
19930;DHT22;10127;47.780;9.606;2023-05-10T01:42:49;14.20;99.90
19930;DHT22;10127;47.780;9.606;2023-05-10T01:45:47;14.10;99.90
19930;DHT22;10127;47.780;9.606;2023-05-10T01:48:15;14.10;99.90
19930;DHT22;10127;47.780;9.606;2023-05-10T01:50:49;14.00;99.90
19930;DHT22;10127;47.780;9.606;2023-05-10T01:53:18;13.90;99.90
19930;DHT22;10127;47.780;9.606;2023-05-10T01:55:48;13.90;99.90
19930;DHT22;10127;47.780;9.606;2023-05-10T01:58:19;13.90;99.90
19930;DHT22;10127;47.780;9.606;2023-05-10T02:00:47;13.90;99.90
19930;DHT22;10127;47.780;9.606;2023-05-10T02:03:14;13.90;99.90
19930;DHT22;10127;47.780;9.606;2023-05-10T02:05:41;13.90;99.90
19930;DHT22;10127;47.780;9.606;2023-05-10T02:08:10;13.90;99.90
19930;DHT22;10127;47.780;9.606;2023-05-10T02:10:36;13.90;99.90
19930;DHT22;10127;47.780;9.606;2023-05-10T02:13:03;13.90;99.90
19930;DHT22;10127;47.780;9.606;2023-05-10T02:15:31;13.90;99.90
19930;DHT22;10127;47.780;9.606;2023-05-10T02:17:58;13.90;99.90
19930;DHT22;10127;47.780;9.606;2023-05-10T02:20:26;13.90;99.90
19930;DHT22;10127;47.780;9.606;2023-05-10T02:22:54;13.90;99.90
19930;DHT22;10127;47.780;9.606;2023-05-10T02:25:22;13.90;99.90
19930;DHT22;10127;47.780;9.606;2023-05-10T02:27:49;13.90;99.90
19930;DHT22;10127;47.780;9.606;2023-05-10T02:30:16;14.00;99.90
19930;DHT22;10127;47.780;9.606;2023-05-10T02:32:43;14.00;99.90
19930;DHT22;10127;47.780;9.606;2023-05-10T02:35:10;13.90;99.90
19930;DHT22;10127;47.780;9.606;2023-05-10T02:37:37;13.90;99.90
19930;DHT22;10127;47.780;9.606;2023-05-10T02:40:05;14.00;99.90
19930;DHT22;10127;47.780;9.606;2023-05-10T02:42:33;13.90;99.90
19930;DHT22;10127;47.780;9.606;2023-05-10T02:45:01;13.90;99.90
19930;DHT22;10127;47.780;9.606;2023-05-10T02:47:28;13.90;99.90
19930;DHT22;10127;47.780;9.606;2023-05-10T02:49:54;13.90;99.90
19930;DHT22;10127;47.780;9.606;2023-05-10T03:16:15;13.90;99.90
19930;DHT22;10127;47.780;9.606;2023-05-10T03:18:48;13.80;99.90
19930;DHT22;10127;47.780;9.606;2023-05-10T03:21:17;13.80;99.90
19930;DHT22;10127;47.780;9.606;2023-05-10T03:23:46;13.90;99.90
19930;DHT22;10127;47.780;9.606;2023-05-10T03:26:23;13.90;99.90
19930;DHT22;10127;47.780;9.606;2023-05-10T03:28:50;13.90;99.90
19930;DHT22;10127;47.780;9.606;2023-05-10T03:31:17;13.80;99.90
19930;DHT22;10127;47.780;9.606;2023-05-10T03:33:50;13.80;99.90
19930;DHT22;10127;47.780;9.606;2023-05-10T03:36:16;13.70;99.90
19930;DHT22;10127;47.780;9.606;2023-05-10T03:38:42;13.80;99.90
19930;DHT22;10127;47.780;9.606;2023-05-10T03:41:07;13.70;99.90
19930;DHT22;10127;47.780;9.606;2023-05-10T03:43:33;13.70;99.90
19930;DHT22;10127;47.780;9.606;2023-05-10T03:46:01;13.70;99.90
19930;DHT22;10127;47.780;9.606;2023-05-10T03:48:26;13.70;99.90
19930;DHT22;10127;47.780;9.606;2023-05-10T03:50:52;13.70;99.90
19930;DHT22;10127;47.780;9.606;2023-05-10T03:53:17;13.70;99.90
19930;DHT22;10127;47.780;9.606;2023-05-10T03:55:43;13.80;99.90
19930;DHT22;10127;47.780;9.606;2023-05-10T03:58:11;13.70;99.90
19930;DHT22;10127;47.780;9.606;2023-05-10T04:00:37;13.70;99.90
19930;DHT22;10127;47.780;9.606;2023-05-10T04:03:02;13.70;99.90
19930;DHT22;10127;47.780;9.606;2023-05-10T04:05:28;13.70;99.90
19930;DHT22;10127;47.780;9.606;2023-05-10T04:07:54;13.70;99.90
19930;DHT22;10127;47.780;9.606;2023-05-10T04:10:19;13.70;99.90
19930;DHT22;10127;47.780;9.606;2023-05-10T04:12:45;13.80;99.90
19930;DHT22;10127;47.780;9.606;2023-05-10T04:15:11;13.80;99.90
19930;DHT22;10127;47.780;9.606;2023-05-10T04:17:37;13.80;99.90
19930;DHT22;10127;47.780;9.606;2023-05-10T04:20:03;13.80;99.90
19930;DHT22;10127;47.780;9.606;2023-05-10T04:22:28;13.80;99.90
19930;DHT22;10127;47.780;9.606;2023-05-10T04:24:54;13.80;99.90
19930;DHT22;10127;47.780;9.606;2023-05-10T04:27:20;13.80;99.90
19930;DHT22;10127;47.780;9.606;2023-05-10T04:29:45;13.80;99.90
19930;DHT22;10127;47.780;9.606;2023-05-10T04:32:11;13.90;99.90
19930;DHT22;10127;47.780;9.606;2023-05-10T04:34:37;14.00;99.90
19930;DHT22;10127;47.780;9.606;2023-05-10T04:37:02;14.00;99.90
19930;DHT22;10127;47.780;9.606;2023-05-10T04:39:28;14.00;99.90
19930;DHT22;10127;47.780;9.606;2023-05-10T04:41:53;14.10;99.90
19930;DHT22;10127;47.780;9.606;2023-05-10T04:44:19;14.20;99.90
19930;DHT22;10127;47.780;9.606;2023-05-10T04:46:44;14.40;99.90
19930;DHT22;10127;47.780;9.606;2023-05-10T04:49:10;14.60;99.90
19930;DHT22;10127;47.780;9.606;2023-05-10T04:51:36;14.50;99.90
19930;DHT22;10127;47.780;9.606;2023-05-10T04:54:01;14.50;99.90
19930;DHT22;10127;47.780;9.606;2023-05-10T04:56:27;14.60;99.90
19930;DHT22;10127;47.780;9.606;2023-05-10T04:58:52;14.60;99.90
19930;DHT22;10127;47.780;9.606;2023-05-10T05:01:18;14.70;99.90
19930;DHT22;10127;47.780;9.606;2023-05-10T05:03:44;14.70;99.90
19930;DHT22;10127;47.780;9.606;2023-05-10T05:06:09;14.70;99.90
19930;DHT22;10127;47.780;9.606;2023-05-10T05:08:35;14.60;99.90
19930;DHT22;10127;47.780;9.606;2023-05-10T05:11:00;14.70;99.90
19930;DHT22;10127;47.780;9.606;2023-05-10T05:13:26;14.50;99.90
19930;DHT22;10127;47.780;9.606;2023-05-10T05:15:51;14.50;99.90
19930;DHT22;10127;47.780;9.606;2023-05-10T05:18:17;14.40;99.90
19930;DHT22;10127;47.780;9.606;2023-05-10T05:20:43;14.40;99.90
19930;DHT22;10127;47.780;9.606;2023-05-10T05:23:08;14.40;99.90
19930;DHT22;10127;47.780;9.606;2023-05-10T05:25:34;14.40;99.90
19930;DHT22;10127;47.780;9.606;2023-05-10T05:27:59;14.40;99.90
19930;DHT22;10127;47.780;9.606;2023-05-10T05:30:25;14.40;99.90
19930;DHT22;10127;47.780;9.606;2023-05-10T05:32:50;14.40;99.90
19930;DHT22;10127;47.780;9.606;2023-05-10T05:35:16;14.40;99.90
19930;DHT22;10127;47.780;9.606;2023-05-10T05:37:42;14.40;99.90
19930;DHT22;10127;47.780;9.606;2023-05-10T05:40:08;14.50;99.90
19930;DHT22;10127;47.780;9.606;2023-05-10T05:42:33;14.50;99.90
19930;DHT22;10127;47.780;9.606;2023-05-10T05:44:59;14.60;99.90
19930;DHT22;10127;47.780;9.606;2023-05-10T05:47:25;14.50;99.90
19930;DHT22;10127;47.780;9.606;2023-05-10T05:49:50;14.50;99.90
19930;DHT22;10127;47.780;9.606;2023-05-10T05:52:16;14.50;99.90
19930;DHT22;10127;47.780;9.606;2023-05-10T05:54:42;14.40;99.90
19930;DHT22;10127;47.780;9.606;2023-05-10T05:57:07;14.40;99.90
19930;DHT22;10127;47.780;9.606;2023-05-10T05:59:33;14.40;99.90
19930;DHT22;10127;47.780;9.606;2023-05-10T06:01:58;14.40;99.90
19930;DHT22;10127;47.780;9.606;2023-05-10T06:04:24;14.40;99.90
19930;DHT22;10127;47.780;9.606;2023-05-10T06:06:50;14.40;99.90
19930;DHT22;10127;47.780;9.606;2023-05-10T06:09:15;14.40;99.90
19930;DHT22;10127;47.780;9.606;2023-05-10T06:11:41;14.40;99.90
19930;DHT22;10127;47.780;9.606;2023-05-10T06:14:07;14.30;99.90
19930;DHT22;10127;47.780;9.606;2023-05-10T06:16:33;14.30;99.90
19930;DHT22;10127;47.780;9.606;2023-05-10T06:18:59;14.30;99.90
19930;DHT22;10127;47.780;9.606;2023-05-10T06:21:25;14.50;99.90
19930;DHT22;10127;47.780;9.606;2023-05-10T06:23:50;14.50;99.90
19930;DHT22;10127;47.780;9.606;2023-05-10T06:26:16;14.60;99.90
19930;DHT22;10127;47.780;9.606;2023-05-10T06:28:42;14.70;99.90
19930;DHT22;10127;47.780;9.606;2023-05-10T06:31:07;14.70;99.90
19930;DHT22;10127;47.780;9.606;2023-05-10T06:33:33;14.60;99.90
19930;DHT22;10127;47.780;9.606;2023-05-10T06:35:59;14.70;99.90
19930;DHT22;10127;47.780;9.606;2023-05-10T06:38:25;14.80;99.90
19930;DHT22;10127;47.780;9.606;2023-05-10T06:40:51;14.90;99.90
19930;DHT22;10127;47.780;9.606;2023-05-10T06:43:16;14.90;99.90
19930;DHT22;10127;47.780;9.606;2023-05-10T06:45:42;14.90;99.90
19930;DHT22;10127;47.780;9.606;2023-05-10T06:48:08;14.90;99.90
19930;DHT22;10127;47.780;9.606;2023-05-10T06:50:33;14.80;99.90
19930;DHT22;10127;47.780;9.606;2023-05-10T06:52:59;14.80;99.90
19930;DHT22;10127;47.780;9.606;2023-05-10T06:55:25;14.80;99.90
19930;DHT22;10127;47.780;9.606;2023-05-10T06:57:51;14.90;99.90
19930;DHT22;10127;47.780;9.606;2023-05-10T07:00:18;14.90;99.90
19930;DHT22;10127;47.780;9.606;2023-05-10T07:02:44;14.80;99.90
19930;DHT22;10127;47.780;9.606;2023-05-10T07:05:09;14.70;99.90
19930;DHT22;10127;47.780;9.606;2023-05-10T07:07:41;14.80;99.90
19930;DHT22;10127;47.780;9.606;2023-05-10T07:10:07;14.80;99.90
19930;DHT22;10127;47.780;9.606;2023-05-10T07:12:33;14.70;99.90
19930;DHT22;10127;47.780;9.606;2023-05-10T07:14:59;14.90;99.90
19930;DHT22;10127;47.780;9.606;2023-05-10T07:17:24;15.00;99.90
19930;DHT22;10127;47.780;9.606;2023-05-10T07:19:50;15.00;99.90
19930;DHT22;10127;47.780;9.606;2023-05-10T07:22:16;15.10;99.90
19930;DHT22;10127;47.780;9.606;2023-05-10T07:24:48;15.10;99.90
19930;DHT22;10127;47.780;9.606;2023-05-10T07:27:14;15.10;99.90
19930;DHT22;10127;47.780;9.606;2023-05-10T07:29:39;15.00;99.90
19930;DHT22;10127;47.780;9.606;2023-05-10T07:32:05;15.00;99.90
19930;DHT22;10127;47.780;9.606;2023-05-10T07:34:31;14.90;99.90
19930;DHT22;10127;47.780;9.606;2023-05-10T07:37:00;14.90;99.90
19930;DHT22;10127;47.780;9.606;2023-05-10T07:39:26;15.00;99.90
19930;DHT22;10127;47.780;9.606;2023-05-10T07:41:59;14.90;99.90
19930;DHT22;10127;47.780;9.606;2023-05-10T07:44:25;15.00;99.90
19930;DHT22;10127;47.780;9.606;2023-05-10T07:46:50;15.00;99.90
19930;DHT22;10127;47.780;9.606;2023-05-10T07:49:16;15.20;99.90
19930;DHT22;10127;47.780;9.606;2023-05-10T07:51:42;15.10;99.90
19930;DHT22;10127;47.780;9.606;2023-05-10T07:54:07;15.20;99.90
19930;DHT22;10127;47.780;9.606;2023-05-10T07:56:33;15.30;99.90
19930;DHT22;10127;47.780;9.606;2023-05-10T07:59:00;15.20;99.90
19930;DHT22;10127;47.780;9.606;2023-05-10T08:01:26;15.30;99.90
19930;DHT22;10127;47.780;9.606;2023-05-10T08:03:54;15.20;99.90
19930;DHT22;10127;47.780;9.606;2023-05-10T08:06:20;15.30;99.90
19930;DHT22;10127;47.780;9.606;2023-05-10T08:08:47;15.50;99.90
19930;DHT22;10127;47.780;9.606;2023-05-10T08:11:18;15.20;99.90
19930;DHT22;10127;47.780;9.606;2023-05-10T08:13:44;15.20;99.90
19930;DHT22;10127;47.780;9.606;2023-05-10T08:16:10;15.20;99.90
19930;DHT22;10127;47.780;9.606;2023-05-10T08:18:37;15.30;99.90
19930;DHT22;10127;47.780;9.606;2023-05-10T08:21:03;15.40;99.90
19930;DHT22;10127;47.780;9.606;2023-05-10T08:23:28;15.40;99.90
19930;DHT22;10127;47.780;9.606;2023-05-10T08:25:54;15.70;99.90
19930;DHT22;10127;47.780;9.606;2023-05-10T08:28:19;15.60;99.90
19930;DHT22;10127;47.780;9.606;2023-05-10T08:30:45;15.70;99.90
19930;DHT22;10127;47.780;9.606;2023-05-10T08:33:10;15.80;99.90
19930;DHT22;10127;47.780;9.606;2023-05-10T08:35:37;15.80;99.90
19930;DHT22;10127;47.780;9.606;2023-05-10T08:38:03;15.90;99.90
19930;DHT22;10127;47.780;9.606;2023-05-10T08:40:28;15.90;99.90
19930;DHT22;10127;47.780;9.606;2023-05-10T08:43:05;16.10;99.90
19930;DHT22;10127;47.780;9.606;2023-05-10T08:45:38;16.30;99.90
19930;DHT22;10127;47.780;9.606;2023-05-10T08:48:08;16.40;99.90
19930;DHT22;10127;47.780;9.606;2023-05-10T08:50:36;16.50;99.90
19930;DHT22;10127;47.780;9.606;2023-05-10T08:53:05;16.30;99.90
19930;DHT22;10127;47.780;9.606;2023-05-10T08:55:32;16.30;99.90
19930;DHT22;10127;47.780;9.606;2023-05-10T08:57:59;16.40;99.90
19930;DHT22;10127;47.780;9.606;2023-05-10T09:00:25;16.20;99.90
19930;DHT22;10127;47.780;9.606;2023-05-10T09:02:51;16.00;99.90
19930;DHT22;10127;47.780;9.606;2023-05-10T09:05:17;15.80;99.90
19930;DHT22;10127;47.780;9.606;2023-05-10T09:07:43;15.90;99.90
19930;DHT22;10127;47.780;9.606;2023-05-10T09:10:09;16.00;99.90
19930;DHT22;10127;47.780;9.606;2023-05-10T09:12:36;16.10;99.90
19930;DHT22;10127;47.780;9.606;2023-05-10T09:15:04;16.30;99.90
19930;DHT22;10127;47.780;9.606;2023-05-10T09:17:31;16.40;99.90
19930;DHT22;10127;47.780;9.606;2023-05-10T09:20:01;16.20;99.90
19930;DHT22;10127;47.780;9.606;2023-05-10T09:22:27;16.20;99.90
19930;DHT22;10127;47.780;9.606;2023-05-10T09:25:15;16.30;99.90
19930;DHT22;10127;47.780;9.606;2023-05-10T09:27:44;16.30;99.90
19930;DHT22;10127;47.780;9.606;2023-05-10T09:30:11;16.40;99.90
19930;DHT22;10127;47.780;9.606;2023-05-10T09:32:42;16.50;99.90
19930;DHT22;10127;47.780;9.606;2023-05-10T09:37:39;16.30;99.90
19930;DHT22;10127;47.780;9.606;2023-05-10T09:40:07;16.30;99.90
19930;DHT22;10127;47.780;9.606;2023-05-10T09:42:34;16.20;99.90
19930;DHT22;10127;47.780;9.606;2023-05-10T09:45:04;16.20;99.90
19930;DHT22;10127;47.780;9.606;2023-05-10T09:47:32;16.10;99.90
19930;DHT22;10127;47.780;9.606;2023-05-10T09:49:59;16.00;99.90
19930;DHT22;10127;47.780;9.606;2023-05-10T09:55:43;16.20;99.90
19930;DHT22;10127;47.780;9.606;2023-05-10T09:58:12;16.10;99.90
19930;DHT22;10127;47.780;9.606;2023-05-10T10:00:40;16.20;99.90
19930;DHT22;10127;47.780;9.606;2023-05-10T10:03:06;16.30;99.90
19930;DHT22;10127;47.780;9.606;2023-05-10T10:05:33;16.40;99.90
19930;DHT22;10127;47.780;9.606;2023-05-10T10:08:01;16.50;99.90
19930;DHT22;10127;47.780;9.606;2023-05-10T10:10:28;16.60;99.90
19930;DHT22;10127;47.780;9.606;2023-05-10T10:12:54;16.50;99.90
19930;DHT22;10127;47.780;9.606;2023-05-10T10:15:21;16.40;99.90
19930;DHT22;10127;47.780;9.606;2023-05-10T10:17:48;16.10;99.90
19930;DHT22;10127;47.780;9.606;2023-05-10T10:20:15;16.00;99.90
19930;DHT22;10127;47.780;9.606;2023-05-10T10:22:40;16.00;99.90
19930;DHT22;10127;47.780;9.606;2023-05-10T10:25:07;16.10;99.90
19930;DHT22;10127;47.780;9.606;2023-05-10T10:28:07;16.10;99.90
19930;DHT22;10127;47.780;9.606;2023-05-10T10:30:45;16.00;99.90
19930;DHT22;10127;47.780;9.606;2023-05-10T10:36:01;16.10;99.90
19930;DHT22;10127;47.780;9.606;2023-05-10T10:38:55;16.10;99.90
19930;DHT22;10127;47.780;9.606;2023-05-10T10:41:34;15.90;99.90
19930;DHT22;10127;47.780;9.606;2023-05-10T10:50:05;16.30;99.90
19930;DHT22;10127;47.780;9.606;2023-05-10T10:52:39;16.20;99.90
19930;DHT22;10127;47.780;9.606;2023-05-10T10:57:42;16.20;99.90
19930;DHT22;10127;47.780;9.606;2023-05-10T11:00:24;16.20;99.90
19930;DHT22;10127;47.780;9.606;2023-05-10T11:07:58;16.10;99.90
19930;DHT22;10127;47.780;9.606;2023-05-10T11:10:24;16.30;99.90
19930;DHT22;10127;47.780;9.606;2023-05-10T11:13:07;16.40;99.90
19930;DHT22;10127;47.780;9.606;2023-05-10T11:15:38;16.40;99.90
19930;DHT22;10127;47.780;9.606;2023-05-10T11:18:17;16.40;99.90
19930;DHT22;10127;47.780;9.606;2023-05-10T11:20:50;16.50;99.90
19930;DHT22;10127;47.780;9.606;2023-05-10T11:23:16;16.70;99.90
19930;DHT22;10127;47.780;9.606;2023-05-10T11:25:44;16.60;99.90
19930;DHT22;10127;47.780;9.606;2023-05-10T11:28:11;16.40;99.90
19930;DHT22;10127;47.780;9.606;2023-05-10T11:30:41;16.20;99.90
19930;DHT22;10127;47.780;9.606;2023-05-10T11:33:08;16.10;99.90
19930;DHT22;10127;47.780;9.606;2023-05-10T11:35:38;15.90;99.90
19930;DHT22;10127;47.780;9.606;2023-05-10T11:38:08;15.70;99.90
19930;DHT22;10127;47.780;9.606;2023-05-10T11:40:34;15.10;99.90
19930;DHT22;10127;47.780;9.606;2023-05-10T11:43:00;14.70;99.90
19930;DHT22;10127;47.780;9.606;2023-05-10T11:45:26;14.80;99.90
19930;DHT22;10127;47.780;9.606;2023-05-10T11:47:53;14.60;99.90
19930;DHT22;10127;47.780;9.606;2023-05-10T11:50:18;14.50;99.90
19930;DHT22;10127;47.780;9.606;2023-05-10T11:52:44;14.40;99.90
19930;DHT22;10127;47.780;9.606;2023-05-10T11:55:10;14.30;99.90
19930;DHT22;10127;47.780;9.606;2023-05-10T11:57:35;14.10;99.90
19930;DHT22;10127;47.780;9.606;2023-05-10T12:00:04;14.30;99.90
19930;DHT22;10127;47.780;9.606;2023-05-10T12:02:30;14.50;99.90
19930;DHT22;10127;47.780;9.606;2023-05-10T12:04:55;14.40;99.90
19930;DHT22;10127;47.780;9.606;2023-05-10T12:07:21;14.40;99.90
19930;DHT22;10127;47.780;9.606;2023-05-10T12:10:12;14.50;99.90
19930;DHT22;10127;47.780;9.606;2023-05-10T12:12:44;14.50;99.90
19930;DHT22;10127;47.780;9.606;2023-05-10T12:15:18;14.90;99.90
19930;DHT22;10127;47.780;9.606;2023-05-10T12:17:45;15.20;99.90
19930;DHT22;10127;47.780;9.606;2023-05-10T12:22:46;15.50;99.90
19930;DHT22;10127;47.780;9.606;2023-05-10T12:25:12;15.70;99.90
19930;DHT22;10127;47.780;9.606;2023-05-10T12:27:38;16.20;99.90
19930;DHT22;10127;47.780;9.606;2023-05-10T12:30:04;16.50;99.90
19930;DHT22;10127;47.780;9.606;2023-05-10T12:32:43;16.70;99.90
19930;DHT22;10127;47.780;9.606;2023-05-10T12:35:09;16.70;99.90
19930;DHT22;10127;47.780;9.606;2023-05-10T12:37:35;17.00;99.90
19930;DHT22;10127;47.780;9.606;2023-05-10T12:40:08;16.80;99.90
19930;DHT22;10127;47.780;9.606;2023-05-10T12:42:35;17.10;99.90
19930;DHT22;10127;47.780;9.606;2023-05-10T12:45:01;17.20;99.90
19930;DHT22;10127;47.780;9.606;2023-05-10T12:47:28;17.60;99.90
19930;DHT22;10127;47.780;9.606;2023-05-10T12:49:53;17.40;99.90
19930;DHT22;10127;47.780;9.606;2023-05-10T12:52:19;17.20;99.90
19930;DHT22;10127;47.780;9.606;2023-05-10T12:54:45;17.50;99.90
19930;DHT22;10127;47.780;9.606;2023-05-10T12:57:12;17.50;99.90
19930;DHT22;10127;47.780;9.606;2023-05-10T12:59:38;17.40;99.90
19930;DHT22;10127;47.780;9.606;2023-05-10T13:02:05;17.20;99.90
19930;DHT22;10127;47.780;9.606;2023-05-10T13:04:31;17.50;99.90
19930;DHT22;10127;47.780;9.606;2023-05-10T13:06:57;17.40;99.90
19930;DHT22;10127;47.780;9.606;2023-05-10T13:09:27;17.30;99.90
19930;DHT22;10127;47.780;9.606;2023-05-10T13:11:54;17.70;99.90
19930;DHT22;10127;47.780;9.606;2023-05-10T13:14:20;17.50;99.90
19930;DHT22;10127;47.780;9.606;2023-05-10T13:16:47;17.20;99.90
19930;DHT22;10127;47.780;9.606;2023-05-10T13:19:16;17.20;99.90
19930;DHT22;10127;47.780;9.606;2023-05-10T13:21:41;17.20;99.90
19930;DHT22;10127;47.780;9.606;2023-05-10T13:24:07;17.30;99.90
19930;DHT22;10127;47.780;9.606;2023-05-10T13:26:33;17.50;99.90
19930;DHT22;10127;47.780;9.606;2023-05-10T13:28:59;17.40;99.90
19930;DHT22;10127;47.780;9.606;2023-05-10T13:31:25;17.40;99.90
19930;DHT22;10127;47.780;9.606;2023-05-10T13:33:50;17.60;99.90
19930;DHT22;10127;47.780;9.606;2023-05-10T13:36:16;17.70;99.90
19930;DHT22;10127;47.780;9.606;2023-05-10T13:38:41;17.90;99.90
19930;DHT22;10127;47.780;9.606;2023-05-10T13:41:07;18.00;99.90
19930;DHT22;10127;47.780;9.606;2023-05-10T13:43:32;17.80;99.90
19930;DHT22;10127;47.780;9.606;2023-05-10T13:45:58;17.80;99.90
19930;DHT22;10127;47.780;9.606;2023-05-10T13:48:24;17.40;99.90
19930;DHT22;10127;47.780;9.606;2023-05-10T13:50:49;17.70;99.90
19930;DHT22;10127;47.780;9.606;2023-05-10T13:53:15;17.70;99.90
19930;DHT22;10127;47.780;9.606;2023-05-10T13:55:41;17.70;99.90
19930;DHT22;10127;47.780;9.606;2023-05-10T13:58:06;17.50;99.90
19930;DHT22;10127;47.780;9.606;2023-05-10T14:00:32;17.20;99.90
19930;DHT22;10127;47.780;9.606;2023-05-10T14:02:57;17.20;99.90
19930;DHT22;10127;47.780;9.606;2023-05-10T14:05:23;17.10;99.90
19930;DHT22;10127;47.780;9.606;2023-05-10T14:07:50;17.10;99.90
19930;DHT22;10127;47.780;9.606;2023-05-10T14:10:16;17.20;99.90
19930;DHT22;10127;47.780;9.606;2023-05-10T14:12:41;17.20;99.90
19930;DHT22;10127;47.780;9.606;2023-05-10T14:15:07;17.30;99.90
19930;DHT22;10127;47.780;9.606;2023-05-10T14:17:35;17.20;99.90
19930;DHT22;10127;47.780;9.606;2023-05-10T14:20:01;17.40;99.90
19930;DHT22;10127;47.780;9.606;2023-05-10T14:22:27;17.30;99.90
19930;DHT22;10127;47.780;9.606;2023-05-10T14:24:53;17.10;99.90
19930;DHT22;10127;47.780;9.606;2023-05-10T14:27:19;17.10;99.90
19930;DHT22;10127;47.780;9.606;2023-05-10T14:29:44;17.00;99.90
19930;DHT22;10127;47.780;9.606;2023-05-10T14:32:10;16.90;99.90
19930;DHT22;10127;47.780;9.606;2023-05-10T14:34:36;16.80;99.90
19930;DHT22;10127;47.780;9.606;2023-05-10T14:37:01;16.80;99.90
19930;DHT22;10127;47.780;9.606;2023-05-10T14:39:27;16.70;99.90
19930;DHT22;10127;47.780;9.606;2023-05-10T14:41:55;16.60;99.90
19930;DHT22;10127;47.780;9.606;2023-05-10T14:44:20;16.60;99.90
19930;DHT22;10127;47.780;9.606;2023-05-10T14:46:46;16.60;99.90
19930;DHT22;10127;47.780;9.606;2023-05-10T14:49:12;16.50;99.90
19930;DHT22;10127;47.780;9.606;2023-05-10T14:51:38;16.40;99.90
19930;DHT22;10127;47.780;9.606;2023-05-10T14:54:03;16.60;99.90
19930;DHT22;10127;47.780;9.606;2023-05-10T14:56:29;16.50;99.90
19930;DHT22;10127;47.780;9.606;2023-05-10T14:58:54;16.40;99.90
19930;DHT22;10127;47.780;9.606;2023-05-10T15:01:20;16.20;99.90
19930;DHT22;10127;47.780;9.606;2023-05-10T15:03:46;16.30;99.90
19930;DHT22;10127;47.780;9.606;2023-05-10T15:06:14;16.30;99.90
19930;DHT22;10127;47.780;9.606;2023-05-10T15:08:39;16.20;99.90
19930;DHT22;10127;47.780;9.606;2023-05-10T15:11:05;16.20;99.90
19930;DHT22;10127;47.780;9.606;2023-05-10T15:13:30;16.20;99.90
19930;DHT22;10127;47.780;9.606;2023-05-10T15:15:56;16.20;99.90
19930;DHT22;10127;47.780;9.606;2023-05-10T15:18:21;16.20;99.90
19930;DHT22;10127;47.780;9.606;2023-05-10T15:20:47;16.10;99.90
19930;DHT22;10127;47.780;9.606;2023-05-10T15:23:12;16.10;99.90
19930;DHT22;10127;47.780;9.606;2023-05-10T15:25:38;16.10;99.90
19930;DHT22;10127;47.780;9.606;2023-05-10T15:28:04;16.20;99.90
19930;DHT22;10127;47.780;9.606;2023-05-10T15:30:30;16.20;99.90
19930;DHT22;10127;47.780;9.606;2023-05-10T15:32:56;16.10;99.90
19930;DHT22;10127;47.780;9.606;2023-05-10T15:35:21;16.10;99.90
19930;DHT22;10127;47.780;9.606;2023-05-10T15:37:48;15.90;99.90
19930;DHT22;10127;47.780;9.606;2023-05-10T15:40:14;15.80;99.90
19930;DHT22;10127;47.780;9.606;2023-05-10T15:42:39;15.80;99.90
19930;DHT22;10127;47.780;9.606;2023-05-10T15:45:05;15.80;99.90
19930;DHT22;10127;47.780;9.606;2023-05-10T15:47:31;16.00;99.90
19930;DHT22;10127;47.780;9.606;2023-05-10T15:49:57;15.90;99.90
19930;DHT22;10127;47.780;9.606;2023-05-10T15:52:22;15.90;99.90
19930;DHT22;10127;47.780;9.606;2023-05-10T15:54:49;15.90;99.90
19930;DHT22;10127;47.780;9.606;2023-05-10T15:57:15;15.80;99.90
19930;DHT22;10127;47.780;9.606;2023-05-10T15:59:41;15.80;99.90
19930;DHT22;10127;47.780;9.606;2023-05-10T16:02:08;15.80;99.90
19930;DHT22;10127;47.780;9.606;2023-05-10T16:04:35;15.80;99.90
19930;DHT22;10127;47.780;9.606;2023-05-10T16:07:01;15.80;99.90
19930;DHT22;10127;47.780;9.606;2023-05-10T16:09:27;15.70;99.90
19930;DHT22;10127;47.780;9.606;2023-05-10T16:11:52;15.70;99.90
19930;DHT22;10127;47.780;9.606;2023-05-10T16:14:18;15.80;99.90
19930;DHT22;10127;47.780;9.606;2023-05-10T16:16:45;15.70;99.90
19930;DHT22;10127;47.780;9.606;2023-05-10T16:19:11;15.80;99.90
19930;DHT22;10127;47.780;9.606;2023-05-10T16:21:37;15.80;99.90
19930;DHT22;10127;47.780;9.606;2023-05-10T16:24:03;15.70;99.90
19930;DHT22;10127;47.780;9.606;2023-05-10T16:26:29;15.60;99.90